KHAO

Details ICAO KHAO
Name BUTLER CO RGNL
Region United States
Timezone America/New_York (UTC-5.0)
Plans Departing 15
Arriving 10
Stats Elevation 633 ft / 193 m (AMSL)
Location 39.363760° -84.521945°
Runways 1
Magnetic Variation 5.894° W
Sunrise 2017-12-11 12:49:34 UTC / 2017-12-11 07:49:34 Local
Sunset 2017-12-11 22:16:15 UTC / 2017-12-11 17:16:15 Local
Advertisement - Login to hide

Runways

ID Width Length Bearing (true) Bearing (mag) Surface Threshold Offset Overrun Length
11 98 ft / 30 m 5,490 ft / 1,673 m 110.45° 116.34° Asphalt 0 ft / 0 m 0 ft / 0 m
29 98 ft / 30 m 5,490 ft / 1,673 m 290.46° 296.35° Asphalt 0 ft / 0 m 0 ft / 0 m

Map

Weather


0- 5 10 15 20 25 30 35+ Temperature / ° C

Clouds and Precipitation
Forecast for 2017-12-12 06:00 UTC. Updated 2 hours ago

Ground ~20,000 ft ~40,000 ft Winds

METAR

KHAO 120453Z AUTO 27015G21KT 10SM OVC050 06/M02 A2973 RMK AO2 PK WND 29028/0414 SLP069 T00611022 400831089

TAF

Not found

Frequencies

Recorded 121.42 MHz ASOS
Clearance 126.25 MHz CLNC DEL
Unicom 123.05 MHz CTAF/UNICOM
Approach 121.00 MHz CINCINNATI APP/DEP
Warning: Do not use this data for real-world aviation or navigation. No guarantee of current accuracy is given.